createdAt,value
2018-08-20T00:00:19.992Z,100937.00
2018-08-20T00:02:49.593Z,100938.00
2018-08-20T00:05:18.859Z,100935.00
2018-08-20T00:07:48.151Z,100939.00
2018-08-20T00:10:17.416Z,100939.00
2018-08-20T00:12:46.675Z,100936.00
2018-08-20T00:15:16.004Z,100933.00
2018-08-20T00:17:45.295Z,100938.00
2018-08-20T00:20:14.563Z,100942.00
2018-08-20T00:22:44.947Z,100941.00
2018-08-20T00:25:16.886Z,100945.00
2018-08-20T00:27:47.044Z,100939.00
2018-08-20T00:30:17.798Z,100942.00
2018-08-20T00:32:48.225Z,100942.00
2018-08-20T00:35:19.593Z,100945.00
2018-08-20T00:37:50.626Z,100935.00
2018-08-20T00:40:20.799Z,100940.00
2018-08-20T00:42:50.110Z,100947.00
2018-08-20T00:45:19.375Z,100943.00
2018-08-20T00:47:48.676Z,100944.00
2018-08-20T00:50:17.976Z,100942.00
2018-08-20T00:52:47.299Z,100942.00
2018-08-20T00:55:16.633Z,100950.00
2018-08-20T00:57:45.980Z,100937.00
2018-08-20T01:00:15.263Z,100940.00
2018-08-20T01:02:44.699Z,100948.00
2018-08-20T01:05:14.029Z,100940.00
2018-08-20T01:07:43.404Z,100943.00
2018-08-20T01:10:12.679Z,100941.00
2018-08-20T01:12:41.969Z,100945.00
2018-08-20T01:15:11.418Z,100947.00
2018-08-20T01:17:40.710Z,100949.00
2018-08-20T01:20:10.035Z,100959.00
2018-08-20T01:22:39.380Z,100953.00
2018-08-20T01:25:08.658Z,100946.00
2018-08-20T01:27:37.998Z,100948.00
2018-08-20T01:30:07.293Z,100949.00
2018-08-20T01:32:36.702Z,100945.00
2018-08-20T01:35:25.087Z,100937.00
2018-08-20T01:37:54.356Z,100934.00
2018-08-20T01:40:23.823Z,100936.00
2018-08-20T01:42:53.067Z,100937.00
2018-08-20T01:45:23.355Z,100935.00
2018-08-20T01:47:52.776Z,100940.00
2018-08-20T01:50:22.034Z,100941.00
2018-08-20T01:52:51.371Z,100933.00
2018-08-20T01:55:20.638Z,100941.00
2018-08-20T01:57:49.926Z,100943.00
2018-08-20T02:00:19.246Z,100940.00
2018-08-20T02:02:54.123Z,100935.00
2018-08-20T02:05:24.294Z,100937.00
2018-08-20T02:07:53.628Z,100925.00
2018-08-20T02:10:22.934Z,100927.00
2018-08-20T02:12:52.241Z,100931.00
2018-08-20T02:15:21.691Z,100927.00
2018-08-20T02:17:51.019Z,100928.00
2018-08-20T02:20:20.268Z,100930.00
2018-08-20T02:22:49.643Z,100926.00
2018-08-20T02:25:18.980Z,100923.00
2018-08-20T02:27:48.470Z,100924.00
2018-08-20T02:30:17.802Z,100927.00
2018-08-20T02:32:47.936Z,100931.00
2018-08-20T02:35:17.245Z,100924.00
2018-08-20T02:37:47.721Z,100928.00
2018-08-20T02:40:18.043Z,100921.00
2018-08-20T02:42:47.418Z,100922.00
2018-08-20T02:45:18.294Z,100912.00
2018-08-20T02:47:47.943Z,100918.00
2018-08-20T02:50:17.251Z,100927.00
2018-08-20T02:52:47.642Z,100925.00
2018-08-20T02:55:16.934Z,100923.00
2018-08-20T02:57:46.271Z,100920.00
2018-08-20T03:00:15.682Z,100920.00
2018-08-20T03:02:45.036Z,100917.00
2018-08-20T03:05:14.343Z,100920.00
2018-08-20T03:07:43.640Z,100914.00
2018-08-20T03:10:13.534Z,100909.00
2018-08-20T03:12:42.984Z,100908.00
2018-08-20T03:15:12.628Z,100909.00
2018-08-20T03:17:41.927Z,100913.00
2018-08-20T03:20:11.229Z,100915.00
2018-08-20T03:22:40.509Z,100924.00
2018-08-20T03:25:09.983Z,100918.00
2018-08-20T03:27:44.218Z,100923.00
2018-08-20T03:30:13.583Z,100921.00
2018-08-20T03:32:42.895Z,100925.00
2018-08-20T03:35:12.387Z,100929.00
2018-08-20T03:37:41.724Z,100923.00
2018-08-20T03:40:12.959Z,100927.00
2018-08-20T03:42:42.667Z,100928.00
2018-08-20T03:45:12.140Z,100927.00
2018-08-20T03:47:41.450Z,100933.00
2018-08-20T03:50:13.791Z,100931.00
2018-08-20T03:52:43.119Z,100928.00
2018-08-20T03:55:12.450Z,100925.00
2018-08-20T03:57:41.753Z,100934.00
2018-08-20T04:00:11.947Z,100920.00
2018-08-20T04:02:42.203Z,100925.00
2018-08-20T04:05:11.549Z,100933.00
2018-08-20T04:07:40.834Z,100938.00
2018-08-20T04:10:10.114Z,100933.00
2018-08-20T04:12:39.400Z,100940.00
2018-08-20T04:15:08.821Z,100928.00
2018-08-20T04:17:38.107Z,100931.00
2018-08-20T04:20:07.458Z,100927.00
2018-08-20T04:22:36.788Z,100926.00
2018-08-20T04:25:06.332Z,100919.00
2018-08-20T04:27:35.622Z,100917.00
2018-08-20T04:30:05.698Z,100914.00
2018-08-20T04:32:34.965Z,100913.00
2018-08-20T04:35:04.475Z,100905.00
2018-08-20T04:37:33.765Z,100905.00
2018-08-20T04:40:03.024Z,100910.00
2018-08-20T04:42:32.443Z,100915.00
2018-08-20T04:45:01.788Z,100910.00
2018-08-20T04:47:31.306Z,100908.00
2018-08-20T04:50:00.737Z,100910.00
2018-08-20T04:52:30.028Z,100919.00
2018-08-20T04:54:59.330Z,100913.00
2018-08-20T04:57:28.589Z,100908.00
2018-08-20T04:59:57.956Z,100918.00
2018-08-20T05:02:27.287Z,100912.00
2018-08-20T05:04:56.549Z,100916.00
2018-08-20T05:07:25.804Z,100921.00
2018-08-20T05:09:55.168Z,100921.00
2018-08-20T05:12:24.507Z,100916.00
2018-08-20T05:14:53.894Z,100921.00
2018-08-20T05:17:23.167Z,100935.00
2018-08-20T05:19:52.790Z,100935.00
2018-08-20T05:22:22.019Z,100936.00
2018-08-20T05:24:53.476Z,100934.00
2018-08-20T05:27:22.773Z,100932.00
2018-08-20T05:29:52.219Z,100938.00
2018-08-20T05:32:21.621Z,100934.00
2018-08-20T05:34:50.927Z,100942.00
2018-08-20T05:37:20.339Z,100947.00
2018-08-20T05:39:49.684Z,100948.00
2018-08-20T05:42:18.999Z,100952.00
2018-08-20T05:44:48.906Z,100959.00
2018-08-20T05:47:25.760Z,100960.00
2018-08-20T05:49:55.043Z,100968.00
2018-08-20T05:52:24.402Z,100980.00
2018-08-20T05:54:53.689Z,100973.00
2018-08-20T05:57:22.988Z,100978.00
2018-08-20T05:59:52.307Z,100978.00
2018-08-20T06:02:21.799Z,100973.00
2018-08-20T06:04:51.190Z,100978.00
2018-08-20T06:07:25.704Z,100974.00
2018-08-20T06:09:56.191Z,100973.00
2018-08-20T06:12:27.992Z,100978.00
2018-08-20T06:14:58.724Z,100982.00
2018-08-20T06:17:27.999Z,100979.00
2018-08-20T06:20:03.374Z,100985.00
2018-08-20T06:22:32.817Z,100993.00
2018-08-20T06:25:02.108Z,100984.00
2018-08-20T06:27:31.368Z,100989.00
2018-08-20T06:30:00.734Z,100994.00
2018-08-20T06:32:30.013Z,100998.00
2018-08-20T06:35:00.095Z,100994.00
2018-08-20T06:37:29.403Z,100997.00
2018-08-20T06:39:58.679Z,101000.00
2018-08-20T06:42:29.059Z,100996.00
2018-08-20T06:44:58.444Z,100999.00
2018-08-20T06:47:27.777Z,100991.00
2018-08-20T06:49:57.101Z,100995.00
2018-08-20T06:52:28.531Z,101001.00
2018-08-20T06:54:57.848Z,101002.00
2018-08-20T06:57:27.120Z,100994.00
2018-08-20T06:59:56.535Z,100992.00
2018-08-20T07:02:25.860Z,100996.00
2018-08-20T07:04:55.147Z,100994.00
2018-08-20T07:07:26.487Z,101000.00
2018-08-20T07:09:55.772Z,101003.00
2018-08-20T07:12:27.204Z,101008.00
2018-08-20T07:14:56.654Z,101005.00
2018-08-20T07:17:26.008Z,101013.00
2018-08-20T07:19:55.325Z,101014.00
2018-08-20T07:22:24.895Z,101016.00
2018-08-20T07:24:54.299Z,101013.00
2018-08-20T07:27:24.354Z,101019.00
2018-08-20T07:29:53.678Z,101021.00
2018-08-20T07:32:22.918Z,101012.00
2018-08-20T07:34:58.481Z,101016.00
2018-08-20T07:37:27.794Z,101013.00
2018-08-20T07:39:57.131Z,101015.00
2018-08-20T07:42:26.558Z,101019.00
2018-08-20T07:44:55.865Z,101017.00
2018-08-20T07:47:25.226Z,101014.00
2018-08-20T07:49:55.619Z,101019.00
2018-08-20T07:52:25.003Z,101030.00
2018-08-20T07:54:55.391Z,101032.00
2018-08-20T07:57:28.672Z,101029.00
2018-08-20T07:59:57.967Z,101029.00
2018-08-20T08:02:27.336Z,101029.00
2018-08-20T08:04:56.723Z,101034.00
2018-08-20T08:07:26.116Z,101037.00
2018-08-20T08:09:55.411Z,101039.00
2018-08-20T08:12:24.818Z,101047.00
2018-08-20T08:14:54.249Z,101048.00
2018-08-20T08:17:23.532Z,101047.00
2018-08-20T08:19:52.912Z,101041.00
2018-08-20T08:22:24.303Z,101052.00
2018-08-20T08:24:53.605Z,101050.00
2018-08-20T08:27:22.939Z,101049.00
2018-08-20T08:29:52.266Z,101049.00
2018-08-20T08:32:21.668Z,101055.00
2018-08-20T08:34:50.956Z,101054.00
2018-08-20T08:37:20.452Z,101053.00
2018-08-20T08:39:49.863Z,101053.00
2018-08-20T08:42:19.242Z,101066.00
2018-08-20T08:44:48.669Z,101060.00
2018-08-20T08:47:17.974Z,101063.00
2018-08-20T08:49:47.378Z,101063.00
2018-08-20T08:52:16.675Z,101061.00
2018-08-20T08:54:46.010Z,101059.00
2018-08-20T08:57:15.330Z,101062.00
2018-08-20T08:59:44.668Z,101064.00
2018-08-20T09:02:13.968Z,101066.00
2018-08-20T09:04:43.267Z,101061.00
2018-08-20T09:07:12.563Z,101062.00
2018-08-20T09:09:41.894Z,101060.00
2018-08-20T09:12:11.280Z,101069.00
2018-08-20T09:14:41.903Z,101076.00
2018-08-20T09:17:11.222Z,101071.00
2018-08-20T09:19:40.523Z,101074.00
2018-08-20T09:22:09.972Z,101070.00
2018-08-20T09:24:40.606Z,101065.00
2018-08-20T09:27:09.931Z,101082.00
2018-08-20T09:29:39.224Z,101075.00
2018-08-20T09:32:08.745Z,101076.00
2018-08-20T09:34:38.099Z,101075.00
2018-08-20T09:37:08.470Z,101078.00
2018-08-20T09:39:37.733Z,101074.00
2018-08-20T09:42:07.168Z,101075.00
2018-08-20T09:44:36.561Z,101070.00
2018-08-20T09:47:06.223Z,101060.00
2018-08-20T09:49:35.627Z,101059.00
2018-08-20T09:52:05.007Z,101069.00
2018-08-20T09:54:34.353Z,101065.00
2018-08-20T09:57:03.734Z,101068.00
2018-08-20T09:59:33.063Z,101068.00
2018-08-20T10:02:02.504Z,101073.00
2018-08-20T10:04:32.115Z,101077.00
2018-08-20T10:07:01.506Z,101075.00
2018-08-20T10:09:30.811Z,101073.00
2018-08-20T10:12:00.119Z,101072.00
2018-08-20T10:14:31.502Z,101069.00
2018-08-20T10:17:00.754Z,101069.00
2018-08-20T10:19:30.113Z,101065.00
2018-08-20T10:21:59.484Z,101061.00
2018-08-20T10:24:28.757Z,101070.00
2018-08-20T10:26:57.976Z,101067.00
2018-08-20T10:29:27.300Z,101069.00
2018-08-20T10:31:56.642Z,101068.00
2018-08-20T10:34:25.984Z,101068.00
2018-08-20T10:36:55.278Z,101075.00
2018-08-20T10:39:24.628Z,101076.00
2018-08-20T10:41:53.975Z,101077.00
2018-08-20T10:44:23.347Z,101077.00
2018-08-20T10:46:53.190Z,101077.00
2018-08-20T10:49:22.565Z,101080.00
2018-08-20T10:51:51.915Z,101074.00
2018-08-20T10:54:21.359Z,101083.00
2018-08-20T10:56:51.807Z,101074.00
2018-08-20T10:59:21.267Z,101076.00
2018-08-20T11:01:50.555Z,101084.00
2018-08-20T11:04:19.883Z,101091.00
2018-08-20T11:06:49.405Z,101087.00
2018-08-20T11:09:18.712Z,101091.00
2018-08-20T11:11:48.215Z,101089.00
2018-08-20T11:14:17.866Z,101094.00
2018-08-20T11:16:47.568Z,101093.00
2018-08-20T11:19:17.019Z,101089.00
2018-08-20T11:21:46.448Z,101099.00
2018-08-20T11:24:15.807Z,101092.00
2018-08-20T11:26:45.087Z,101091.00
2018-08-20T11:29:14.419Z,101094.00
2018-08-20T11:31:47.695Z,101096.00
2018-08-20T11:34:17.592Z,101092.00
2018-08-20T11:36:47.042Z,101100.00
2018-08-20T11:39:16.568Z,101091.00
2018-08-20T11:41:45.878Z,101100.00
2018-08-20T11:44:15.907Z,101101.00
2018-08-20T11:46:45.227Z,101105.00
2018-08-20T11:49:14.576Z,101104.00
2018-08-20T11:51:55.771Z,101094.00
2018-08-20T11:54:25.412Z,101099.00
2018-08-20T11:56:54.784Z,101092.00
2018-08-20T11:59:25.365Z,101091.00
2018-08-20T12:01:54.627Z,101101.00
2018-08-20T12:04:24.305Z,101096.00
2018-08-20T12:06:53.629Z,101089.00
2018-08-20T12:09:22.940Z,101087.00
2018-08-20T12:11:52.408Z,101077.00
2018-08-20T12:14:21.850Z,101086.00
2018-08-20T12:16:51.149Z,101086.00
2018-08-20T12:19:30.195Z,101090.00
2018-08-20T12:21:59.471Z,101089.00
2018-08-20T12:24:28.775Z,101077.00
2018-08-20T12:26:58.026Z,101092.00
2018-08-20T12:29:27.480Z,101087.00
2018-08-20T12:31:56.850Z,101082.00
2018-08-20T12:34:26.274Z,101090.00
2018-08-20T12:36:55.437Z,101091.00
2018-08-20T12:39:24.834Z,101089.00
2018-08-20T12:41:54.116Z,101082.00
2018-08-20T12:44:23.400Z,101090.00
2018-08-20T12:46:52.641Z,101090.00
2018-08-20T12:49:21.929Z,101087.00
2018-08-20T12:51:51.236Z,101092.00
2018-08-20T12:54:20.459Z,101080.00
2018-08-20T12:56:49.778Z,101091.00
2018-08-20T12:59:21.550Z,101087.00
2018-08-20T13:01:50.857Z,101090.00
2018-08-20T13:04:20.245Z,101086.00
2018-08-20T13:06:49.531Z,101079.00
2018-08-20T13:09:18.788Z,101084.00
2018-08-20T13:11:48.030Z,101081.00
2018-08-20T13:14:17.295Z,101081.00
2018-08-20T13:16:46.677Z,101101.00
2018-08-20T13:19:16.064Z,101086.00
2018-08-20T13:21:45.327Z,101084.00
2018-08-20T13:24:14.673Z,101079.00
2018-08-20T13:26:43.974Z,101096.00
2018-08-20T13:29:13.365Z,101092.00
2018-08-20T13:31:42.712Z,101085.00
2018-08-20T13:34:12.121Z,101084.00
2018-08-20T13:36:41.523Z,101091.00
2018-08-20T13:39:10.734Z,101099.00
2018-08-20T13:41:39.957Z,101093.00
2018-08-20T13:44:09.356Z,101091.00
2018-08-20T13:46:38.627Z,101087.00
2018-08-20T13:49:07.956Z,101089.00
2018-08-20T13:51:37.327Z,101096.00
2018-08-20T13:54:06.781Z,101091.00
2018-08-20T13:56:36.071Z,101094.00
2018-08-20T13:59:05.439Z,101079.00
2018-08-20T14:01:35.484Z,101084.00
2018-08-20T14:04:04.743Z,101082.00
2018-08-20T14:06:34.112Z,101083.00
2018-08-20T14:09:03.590Z,101078.00
2018-08-20T14:11:32.838Z,101077.00
2018-08-20T14:14:02.091Z,101086.00
2018-08-20T14:16:31.551Z,101087.00
2018-08-20T14:19:00.879Z,101080.00
2018-08-20T14:21:30.098Z,101082.00
2018-08-20T14:23:59.367Z,101086.00
2018-08-20T14:26:29.714Z,101077.00
2018-08-20T14:28:59.021Z,101077.00
2018-08-20T14:31:28.291Z,101077.00
2018-08-20T14:33:57.572Z,101079.00
2018-08-20T14:36:26.890Z,101080.00
2018-08-20T14:38:56.323Z,101075.00
2018-08-20T14:41:25.725Z,101071.00
2018-08-20T14:43:55.000Z,101067.00
2018-08-20T14:46:24.367Z,101069.00
2018-08-20T14:48:54.108Z,101071.00
2018-08-20T14:51:23.436Z,101067.00
2018-08-20T14:53:52.789Z,101069.00
2018-08-20T14:56:22.084Z,101067.00
2018-08-20T14:58:51.332Z,101062.00
2018-08-20T15:01:27.377Z,101065.00
2018-08-20T15:03:56.743Z,101060.00
2018-08-20T15:06:26.022Z,101071.00
2018-08-20T15:08:55.317Z,101069.00
2018-08-20T15:11:24.548Z,101077.00
2018-08-20T15:13:53.796Z,101070.00
2018-08-20T15:16:22.999Z,101080.00
2018-08-20T15:18:52.245Z,101080.00
2018-08-20T15:21:22.500Z,101081.00
2018-08-20T15:23:53.923Z,101082.00
2018-08-20T15:26:23.285Z,101083.00
2018-08-20T15:28:52.612Z,101087.00
2018-08-20T15:31:21.933Z,101079.00
2018-08-20T15:33:51.223Z,101084.00
2018-08-20T15:36:20.609Z,101089.00
2018-08-20T15:38:49.887Z,101090.00
2018-08-20T15:41:19.263Z,101088.00
2018-08-20T15:43:48.530Z,101083.00
2018-08-20T15:46:18.558Z,101093.00
2018-08-20T15:48:47.864Z,101094.00
2018-08-20T15:51:19.281Z,101096.00
2018-08-20T15:53:48.599Z,101085.00
2018-08-20T15:56:17.901Z,101102.00
2018-08-20T15:58:47.173Z,101093.00
2018-08-20T16:01:16.479Z,101096.00
2018-08-20T16:03:45.867Z,101104.00
2018-08-20T16:06:15.171Z,101100.00
2018-08-20T16:08:44.459Z,101096.00
2018-08-20T16:11:13.800Z,101100.00
2018-08-20T16:13:49.226Z,101108.00
2018-08-20T16:16:18.481Z,101106.00
2018-08-20T16:18:47.746Z,101102.00
2018-08-20T16:21:16.959Z,101100.00
2018-08-20T16:23:46.239Z,101096.00
2018-08-20T16:26:15.576Z,101094.00
2018-08-20T16:28:44.823Z,101102.00
2018-08-20T16:31:15.975Z,101099.00
2018-08-20T16:33:45.354Z,101093.00
2018-08-20T16:36:14.637Z,101094.00
2018-08-20T16:38:43.894Z,101086.00
2018-08-20T16:41:13.295Z,101102.00
2018-08-20T16:43:42.766Z,101092.00
2018-08-20T16:46:12.044Z,101093.00
2018-08-20T16:48:41.367Z,101103.00
2018-08-20T16:51:10.665Z,101104.00
2018-08-20T16:53:39.966Z,101094.00
2018-08-20T16:56:09.328Z,101111.00
2018-08-20T16:58:38.778Z,101104.00
2018-08-20T17:01:14.826Z,101105.00
2018-08-20T17:03:44.095Z,101111.00
2018-08-20T17:06:15.439Z,101109.00
2018-08-20T17:08:45.810Z,101106.00
2018-08-20T17:11:15.194Z,101105.00
2018-08-20T17:13:44.424Z,101113.00
2018-08-20T17:16:15.279Z,101109.00
2018-08-20T17:18:44.522Z,101107.00
2018-08-20T17:21:13.842Z,101106.00
2018-08-20T17:23:43.307Z,101107.00
2018-08-20T17:26:12.582Z,101102.00
2018-08-20T17:28:41.876Z,101105.00
2018-08-20T17:31:13.416Z,101100.00
2018-08-20T17:33:42.764Z,101105.00
2018-08-20T17:36:12.138Z,101105.00
2018-08-20T17:38:41.489Z,101112.00
2018-08-20T17:41:10.807Z,101119.00
2018-08-20T17:43:40.154Z,101113.00
2018-08-20T17:46:09.559Z,101122.00
2018-08-20T17:48:41.533Z,101118.00
2018-08-20T17:51:14.266Z,101122.00
2018-08-20T17:53:58.836Z,101122.00
2018-08-20T17:56:28.747Z,101128.00
2018-08-20T17:59:05.706Z,101121.00
2018-08-20T18:01:41.446Z,101126.00
2018-08-20T18:04:11.298Z,101129.00
2018-08-20T18:06:49.396Z,101128.00
2018-08-20T18:09:20.119Z,101129.00
2018-08-20T18:11:52.192Z,101136.00
2018-08-20T18:14:23.981Z,101135.00
2018-08-20T18:16:53.343Z,101133.00
2018-08-20T18:19:22.653Z,101135.00
2018-08-20T18:21:52.028Z,101133.00
2018-08-20T18:24:22.247Z,101136.00
2018-08-20T18:26:56.512Z,101147.00
2018-08-20T18:29:25.906Z,101143.00
2018-08-20T18:31:59.967Z,101149.00
2018-08-20T18:34:29.282Z,101150.00
2018-08-20T18:37:01.795Z,101153.00
2018-08-20T18:39:31.049Z,101152.00
2018-08-20T18:42:04.339Z,101153.00
2018-08-20T18:44:33.617Z,101155.00
2018-08-20T18:47:03.096Z,101167.00
2018-08-20T18:49:32.702Z,101164.00
2018-08-20T18:52:12.307Z,101160.00
2018-08-20T18:54:45.096Z,101163.00
2018-08-20T18:57:26.644Z,101166.00
2018-08-20T18:59:58.455Z,101167.00
2018-08-20T19:03:04.071Z,101167.00
2018-08-20T19:05:54.290Z,101178.00
2018-08-20T19:08:26.440Z,101177.00
2018-08-20T19:10:55.792Z,101181.00
2018-08-20T19:13:25.191Z,101173.00
2018-08-20T19:15:54.587Z,101191.00
2018-08-20T19:18:37.386Z,101180.00
2018-08-20T19:21:13.039Z,101182.00
2018-08-20T19:23:43.448Z,101192.00
2018-08-20T19:26:12.912Z,101188.00
2018-08-20T19:28:42.198Z,101191.00
2018-08-20T19:31:11.506Z,101192.00
2018-08-20T19:33:40.922Z,101189.00
2018-08-20T19:36:10.874Z,101195.00
2018-08-20T19:38:40.249Z,101202.00
2018-08-20T19:41:14.351Z,101198.00
2018-08-20T19:43:49.621Z,101194.00
2018-08-20T19:46:31.598Z,101188.00
2018-08-20T19:49:06.359Z,101193.00
2018-08-20T19:51:37.807Z,101189.00
2018-08-20T19:54:09.649Z,101190.00
2018-08-20T19:56:39.471Z,101191.00
2018-08-20T19:59:08.859Z,101193.00
2018-08-20T20:01:38.270Z,101180.00
2018-08-20T20:04:08.336Z,101186.00
2018-08-20T20:06:37.756Z,101187.00
2018-08-20T20:09:10.238Z,101192.00
2018-08-20T20:11:47.647Z,101196.00
2018-08-20T20:14:17.048Z,101192.00
2018-08-20T20:16:51.576Z,101198.00
2018-08-20T20:19:21.096Z,101196.00
2018-08-20T20:21:50.691Z,101199.00
2018-08-20T20:24:20.075Z,101202.00
2018-08-20T20:26:49.508Z,101204.00
2018-08-20T20:29:18.979Z,101206.00
2018-08-20T20:31:48.192Z,101202.00
2018-08-20T20:34:17.495Z,101203.00
2018-08-20T20:36:46.812Z,101205.00
2018-08-20T20:39:16.131Z,101206.00
2018-08-20T20:41:45.654Z,101204.00
2018-08-20T20:44:14.938Z,101205.00
2018-08-20T20:46:44.292Z,101207.00
2018-08-20T20:49:14.003Z,101198.00
2018-08-20T20:51:43.449Z,101205.00
2018-08-20T20:54:12.881Z,101208.00
2018-08-20T20:56:42.200Z,101206.00
2018-08-20T20:59:12.546Z,101218.00
2018-08-20T21:01:41.902Z,101211.00
2018-08-20T21:04:11.265Z,101217.00
2018-08-20T21:06:41.849Z,101218.00
2018-08-20T21:09:12.996Z,101215.00
2018-08-20T21:11:42.519Z,101218.00
2018-08-20T21:14:11.841Z,101212.00
2018-08-20T21:16:41.197Z,101212.00
2018-08-20T21:19:10.675Z,101220.00
2018-08-20T21:21:40.000Z,101222.00
2018-08-20T21:24:09.431Z,101227.00
2018-08-20T21:26:38.827Z,101224.00
2018-08-20T21:29:08.456Z,101228.00
2018-08-20T21:31:42.994Z,101234.00
2018-08-20T21:34:12.330Z,101221.00
2018-08-20T21:36:41.663Z,101227.00
2018-08-20T21:39:11.152Z,101229.00
2018-08-20T21:41:40.384Z,101221.00
2018-08-20T21:44:09.640Z,101229.00
2018-08-20T21:46:39.071Z,101230.00
2018-08-20T21:49:15.033Z,101229.00
2018-08-20T21:51:49.768Z,101226.00
2018-08-20T21:54:25.387Z,101228.00
2018-08-20T21:56:54.723Z,101229.00
2018-08-20T21:59:24.056Z,101236.00
2018-08-20T22:01:53.399Z,101236.00
2018-08-20T22:04:23.084Z,101237.00
2018-08-20T22:06:59.846Z,101240.00
2018-08-20T22:09:29.157Z,101243.00
2018-08-20T22:11:58.966Z,101248.00
2018-08-20T22:14:28.283Z,101240.00
2018-08-20T22:16:57.529Z,101247.00
2018-08-20T22:19:26.756Z,101257.00
2018-08-20T22:21:56.072Z,101253.00
2018-08-20T22:24:26.524Z,101252.00
2018-08-20T22:26:58.720Z,101252.00
2018-08-20T22:29:37.404Z,101258.00
2018-08-20T22:32:09.063Z,101255.00
2018-08-20T22:34:38.335Z,101259.00
2018-08-20T22:37:08.802Z,101255.00
2018-08-20T22:39:39.244Z,101257.00
2018-08-20T22:42:08.614Z,101256.00
2018-08-20T22:44:37.887Z,101249.00
2018-08-20T22:47:07.098Z,101258.00
2018-08-20T22:49:36.350Z,101261.00
2018-08-20T22:52:08.092Z,101259.00
2018-08-20T22:54:42.421Z,101254.00
2018-08-20T22:57:11.830Z,101262.00
2018-08-20T22:59:41.179Z,101257.00
2018-08-20T23:02:10.375Z,101260.00
2018-08-20T23:04:40.095Z,101264.00
2018-08-20T23:07:13.759Z,101264.00
2018-08-20T23:09:43.038Z,101259.00
2018-08-20T23:12:12.249Z,101263.00
2018-08-20T23:14:41.551Z,101262.00
2018-08-20T23:17:10.882Z,101268.00
2018-08-20T23:19:40.083Z,101272.00
2018-08-20T23:22:09.433Z,101268.00
2018-08-20T23:24:43.552Z,101258.00
2018-08-20T23:27:12.843Z,101274.00
2018-08-20T23:29:42.112Z,101267.00
2018-08-20T23:32:11.433Z,101263.00
2018-08-20T23:34:40.670Z,101262.00
2018-08-20T23:37:09.883Z,101258.00
2018-08-20T23:39:39.169Z,101256.00
2018-08-20T23:42:08.590Z,101263.00
2018-08-20T23:44:37.941Z,101262.00
2018-08-20T23:47:07.241Z,101252.00
2018-08-20T23:49:36.532Z,101252.00
2018-08-20T23:52:05.863Z,101253.00
2018-08-20T23:54:35.366Z,101257.00
2018-08-20T23:57:04.649Z,101268.00
2018-08-20T23:59:33.928Z,101259.00
